• Join FlightAware (Why Join?)
  • Login
  • US Flag 
01:01AM EDT


 

Airport Tracker/Info


-or-


 

Live Flight TrackerFlight Track Log ✈ AMF413 ✈ 24-May-2013 ✈ KPDT - KPDX

Flight Track Log - Related Links

Times and Time Zones

All times are in EDT time to prevent confusion due to time zone crossing. See the AMF413 flight status page for this flight to view local times or setup timezone preferences in your user account.

Time Position Orientation Groundspeed Altitude Reporting Facility
EDT Latitude Longitude Course Direction KTS MPH feet Rate Location/Type
11:18PM 45.6406 -119.2194 255° West 157 181 6,500  Level Seattle Center
11:19PM 45.6247 -119.2778 249° West 159 183 6,700 720 Climbing Seattle Center
11:20PM 45.6147 -119.3483 259° West 154 177 8,000 600 Climbing Seattle Center
11:21PM 45.6028 -119.4100 255° West 157 181 8,000  Level Seattle Center
11:22PM 45.5903 -119.4694 253° West 158 182 8,000 -60 Level Seattle Center
11:23PM 45.5778 -119.5283 253° West 157 181 7,900  Descending Seattle Center
11:24PM 45.6571 -119.1279 255° West  Level FlightAware Approximate
11:25PM 45.5656 -119.5858 253° West 155 178 8,000  Level Seattle Center
11:26PM 45.5531 -119.6442 253° West 154 177 8,000  Level Seattle Center
11:27PM 45.5403 -119.7050 253° West 158 182 8,000 -60 Level Seattle Center
11:28PM 45.5281 -119.7656 254° West 159 183 7,900  Descending Seattle Center
11:29PM 45.5267 -119.8267 268° West 157 181 8,000  Climbing Seattle Center
11:30PM 45.5394 -119.8881 287° West 158 182 8,000  Level Seattle Center
11:31PM 45.5494 -119.9506 283° West 161 185 8,000  Level Seattle Center
11:32PM 45.5589 -120.0139 282° West 162 186 8,000  Level Seattle Center
11:33PM 45.5675 -120.0792 281° West 165 190 8,000 -60 Level Seattle Center
11:34PM 45.5769 -120.1450 282° West 167 192 7,900  Descending Seattle Center
11:35PM 45.5858 -120.2106 281° West 169 194 8,000  Climbing Seattle Center
11:36PM 45.5981 -120.2883 283° West 169 194 8,000  Level Seattle Center
11:37PM 45.6069 -120.3517 281° West 167 192 8,000 -60 Level Seattle Center
11:38PM 45.6161 -120.4150 282° West 165 190 7,900  Descending Seattle Center
11:39PM 45.6247 -120.4800 281° West 166 191 8,000  Climbing Seattle Center
11:40PM 45.6342 -120.5453 282° West 167 192 8,000  Level Seattle Center
11:41PM 45.6439 -120.6097 282° West 167 192 8,000  Level Seattle Center
11:42PM 45.6533 -120.6744 282° West 167 192 8,000  Level Seattle Center
11:43PM 45.6611 -120.7386 280° West 166 191 8,000  Level Seattle Center
11:44PM 45.6706 -120.8031 282° West 166 191 8,000  Level Seattle Center
11:45PM 45.6786 -120.8653 281° West 164 189 8,000  Level Seattle Center
11:46PM 45.6869 -120.9278 281° West 162 186 8,000  Level Seattle Center
11:47PM 45.6969 -120.9917 283° West 164 189 8,000  Level Seattle Center
11:48PM 45.7058 -121.0561 281° West 165 190 8,000 -60 Level Seattle Center
11:49PM 45.7144 -121.1219 281° West 167 192 7,900  Descending Seattle Center
11:50PM 45.7139 -121.1914 269° West 174 200 8,000  Climbing Seattle Center
11:51PM 45.7161 -121.2578 273° West 170 196 8,000  Level Seattle Center
11:52PM 45.7186 -121.3383 273° West 170 196 8,000  Level Seattle Center
11:53PM 45.7203 -121.4058 272° West 169 194 8,000  Level Seattle Center
11:54PM 45.7217 -121.4714 272° West 168 193 8,000  Level Seattle Center
11:54PM 45.7236 -121.4906 278° West 167 192 8,000 -180 Level Seattle Center
11:54PM 45.7239 -121.5122 271° West 165 190 7,900  Descending Seattle Center
11:55PM 45.7236 -121.5361 269° West 165 190 8,000 60 Climbing Seattle Center
11:55PM 45.7264 -121.5764 276° West 160 184 8,000  Level Seattle Center
11:56PM 45.7247 -121.5997 264° West 161 185 8,000  Level Seattle Center
11:56PM 45.7272 -121.6414 275° West 162 186 8,000  Level Seattle Center
11:57PM 45.7278 -121.6639 272° West 162 186 8,000  Level Seattle Center
11:57PM 45.7308 -121.7111 275° West 165 190 8,000  Level Seattle Center
11:58PM 45.7294 -121.7286 264° West 163 188 8,000  Level Seattle Center
11:58PM 45.7308 -121.7731 273° West 159 183 8,000 -120 Level Seattle Center
11:59PM 45.7308 -121.7908 270° West 158 182 7,900 -120 Descending Seattle Center
12:00AM 45.7339 -121.8400 275° West 158 182 7,900  Level Seattle Center
12:00AM 45.7322 -121.8536 260° West 158 182 7,900 60 Level Seattle Center
12:01AM 45.7344 -121.9050 274° West 163 188 8,000  Climbing Seattle Center
12:01AM 45.7344 -121.9194 270° West 164 189 7,900 -840 Descending Seattle Center
12:02AM 45.7386 -121.9778 276° West 172 198 7,200 -720 Descending Seattle Center
12:02AM 45.7378 -121.9922 265° West 173 199 7,200 -540 Level Seattle Center
12:03AM 45.7356 -122.0472 267° West 180 207 6,700 -600 Descending Seattle Center
12:03AM 45.7358 -122.0636 271° West 180 207 6,600 -900 Descending Seattle Center
12:04AM 45.7372 -122.1178 272° West 178 205 5,800 -1,020 Descending Seattle Center
12:04AM 45.7378 -122.1361 272° West 183 211 5,600 -240 Descending Seattle Center
12:05AM 45.7375 -122.1828 270° West 176 203 5,600 -120 Level Seattle Center
12:05AM 45.7411 -122.2050 283° West 180 207 5,500 -120 Descending Seattle Center
12:06AM 45.7411 -122.2433 270° West 146 168 5,500  Level Seattle Center
12:06AM 45.7447 -122.2636 284° West 159 183 5,500 -120 Level Seattle Center
12:06AM 45.7436 -122.2981 267° West 147 169 5,400 -240 Descending Seattle Center
12:07AM 45.7406 -122.3228 260° West 153 176 5,300 -720 Descending Seattle Center
12:07AM 45.7217 -122.3506 226° Southwest 164 189 4,700 -1,320 Descending Seattle Center
12:08AM 45.7133 -122.3764 245° Southwest 163 188 4,000 -1,380 Descending Seattle Center
12:09AM 45.6883 -122.4108 224° Southwest 180 207 3,200 -1,200 Descending Seattle Center
12:09AM 45.6797 -122.4300 237° Southwest 175 201 2,800 -1,320 Descending Seattle Center
12:10AM 45.6650 -122.4761 245° Southwest 172 198 1,900 -1,140 Descending Seattle Center
12:10AM 45.6569 -122.4894 229° Southwest 173 199 1,700 -300 Descending Seattle Center
12:11AM 45.6347 -122.5194 223° Southwest 146 168 1,600 -240 Descending Seattle Center
12:11AM 45.6269 -122.5328 230° Southwest 165 190 1,500 -420 Descending Seattle Center
12:12AM 45.6058 -122.5592 221° Southwest 135 155 1,200 -240 Descending Seattle Center
12:12AM 45.6006 -122.5675 228° Southwest 146 168 1,300  Climbing Seattle Center
12:13AM 45.5853 -122.5861 220° Southwest 117 135 1,200 -420 Descending Seattle Center
12:13AM 45.5750 -122.5975 218° Southwest 131 151 900 -540 Descending Seattle Center
12:14AM 45.5653 -122.6158 233° Southwest 104 120 700 -240 Descending Seattle Center
12:14AM 45.5525 -122.6319 221° Southwest 121 139 700  Level Seattle Center